VDPP/PNH METAR and TAF weather

Enter ICAO airport designator
Station Type Date Time Source
VDPP METAR 2019/06/17 05:00 UTC NOAA

VDPP 170500Z 24012KT 200V260 9999 SCT017 SCT040 32/24 Q1007


Station Type Date Time Source
VDPP Decoded METAR 2019/06/17 05:00 UTC NOAA

Phnom-Penh / Pochentong, Cambodia (VDPP) 11-33N 104-51E 10M
Jun 17, 2019 - 01:00 AM EDT / 2019.06.17 0500 UTC
Wind: from the WSW (240 degrees) at 14 MPH (12 KT) (direction variable):0
Visibility: greater than 7 mile(s):0
Sky conditions: partly cloudy
Temperature: 89 F (32 C)
Heat index: 98.4 F (36.9 C):1
Dew Point: 75 F (24 C)
Relative Humidity: 62%
Pressure (altimeter): 29.74 in. Hg (1007 hPa)
ob: VDPP 170500Z 24012KT 200V260 9999 SCT017 SCT040 32/24 Q1007
cycle: 5

Station Type Date Time Source
VDPP TAF 2019/06/16 18:00 UTC NOAA

TAF VDPP 161700Z 1618/1712 22008KT 9999 SCT017 SCT040
TEMPO 1706/1711 5000 TSRA SCT015 FEW017CB SCT040

Example: see airport list